sensor_id;sensor_type;location;lat;lon;timestamp;pressure;altitude;pressure_sealevel;temperature;humidity
70921;BME280;58572;48.110;19.838;2023-03-08T00:02:15;96315.69;;;7.40;69.50
70921;BME280;58572;48.110;19.838;2023-03-08T00:04:42;96237.22;;;8.03;64.79
70921;BME280;58572;48.110;19.838;2023-03-08T00:07:10;96206.00;;;6.97;68.85
70921;BME280;58572;48.110;19.838;2023-03-08T00:09:37;96327.84;;;7.92;66.36
70921;BME280;58572;48.110;19.838;2023-03-08T00:12:06;96275.81;;;7.95;66.29
70921;BME280;58572;48.110;19.838;2023-03-08T00:14:35;96324.78;;;8.07;68.46
70921;BME280;58572;48.110;19.838;2023-03-08T00:17:02;96325.34;;;8.18;64.97
70921;BME280;58572;48.110;19.838;2023-03-08T00:19:29;96334.84;;;7.93;66.48
70921;BME280;58572;48.110;19.838;2023-03-08T00:21:56;96321.00;;;8.44;66.76
70921;BME280;58572;48.110;19.838;2023-03-08T00:24:23;96310.09;;;8.36;68.69
70921;BME280;58572;48.110;19.838;2023-03-08T00:26:50;96310.78;;;8.63;64.16
70921;BME280;58572;48.110;19.838;2023-03-08T00:29:19;96311.94;;;8.13;65.36
70921;BME280;58572;48.110;19.838;2023-03-08T00:31:46;96305.81;;;8.35;68.61
70921;BME280;58572;48.110;19.838;2023-03-08T00:34:13;96306.16;;;8.64;65.73
70921;BME280;58572;48.110;19.838;2023-03-08T00:36:40;96258.41;;;7.87;66.25
70921;BME280;58572;48.110;19.838;2023-03-08T00:39:07;96299.41;;;8.84;65.44
70921;BME280;58572;48.110;19.838;2023-03-08T00:41:34;96312.56;;;8.46;64.65
70921;BME280;58572;48.110;19.838;2023-03-08T00:44:01;96307.28;;;8.27;64.52
70921;BME280;58572;48.110;19.838;2023-03-08T00:46:29;96310.03;;;8.13;66.89
70921;BME280;58572;48.110;19.838;2023-03-08T00:48:56;96300.06;;;7.50;70.31
70921;BME280;58572;48.110;19.838;2023-03-08T00:51:24;96304.38;;;7.24;70.75
70921;BME280;58572;48.110;19.838;2023-03-08T00:53:52;96303.59;;;7.87;68.89
70921;BME280;58572;48.110;19.838;2023-03-08T00:56:19;96295.06;;;7.57;68.65
70921;BME280;58572;48.110;19.838;2023-03-08T00:58:46;96316.84;;;7.75;68.12
70921;BME280;58572;48.110;19.838;2023-03-08T01:01:14;96311.59;;;7.92;65.89
70921;BME280;58572;48.110;19.838;2023-03-08T01:03:43;96290.56;;;7.89;67.56
70921;BME280;58572;48.110;19.838;2023-03-08T01:06:12;96313.66;;;7.73;66.81
70921;BME280;58572;48.110;19.838;2023-03-08T01:08:41;96321.69;;;7.50;69.04
70921;BME280;58572;48.110;19.838;2023-03-08T01:11:14;96315.22;;;7.87;67.34
70921;BME280;58572;48.110;19.838;2023-03-08T01:13:42;96320.94;;;8.22;64.07
70921;BME280;58572;48.110;19.838;2023-03-08T01:16:15;96320.81;;;7.91;68.07
70921;BME280;58572;48.110;19.838;2023-03-08T01:18:44;96316.72;;;7.93;66.28
70921;BME280;58572;48.110;19.838;2023-03-08T01:21:11;96327.34;;;7.90;67.07
70921;BME280;58572;48.110;19.838;2023-03-08T01:23:38;96328.09;;;7.27;70.90
70921;BME280;58572;48.110;19.838;2023-03-08T01:26:07;96325.06;;;7.83;68.86
70921;BME280;58572;48.110;19.838;2023-03-08T01:28:35;96326.09;;;7.46;69.96
70921;BME280;58572;48.110;19.838;2023-03-08T01:31:03;96319.41;;;8.29;65.07
70921;BME280;58572;48.110;19.838;2023-03-08T01:33:30;96325.28;;;7.59;69.62
70921;BME280;58572;48.110;19.838;2023-03-08T01:36:01;96231.59;;;7.14;68.50
70921;BME280;58572;48.110;19.838;2023-03-08T01:38:28;96296.13;;;8.06;64.80
70921;BME280;58572;48.110;19.838;2023-03-08T01:40:56;96213.56;;;7.23;65.94
70921;BME280;58572;48.110;19.838;2023-03-08T01:43:25;96287.88;;;8.11;65.02
70921;BME280;58572;48.110;19.838;2023-03-08T01:46:04;96323.78;;;7.53;65.55
70921;BME280;58572;48.110;19.838;2023-03-08T01:48:36;96304.66;;;7.63;68.53
70921;BME280;58572;48.110;19.838;2023-03-08T01:51:07;96319.78;;;7.51;69.64
70921;BME280;58572;48.110;19.838;2023-03-08T01:53:36;96315.34;;;7.82;66.65
70921;BME280;58572;48.110;19.838;2023-03-08T01:56:05;96320.50;;;8.28;66.03
70921;BME280;58572;48.110;19.838;2023-03-08T01:58:35;96313.50;;;8.27;65.31
70921;BME280;58572;48.110;19.838;2023-03-08T02:01:02;96313.81;;;7.90;66.00
70921;BME280;58572;48.110;19.838;2023-03-08T02:03:29;96321.28;;;7.16;70.86
70921;BME280;58572;48.110;19.838;2023-03-08T02:05:56;96242.41;;;6.86;68.14
70921;BME280;58572;48.110;19.838;2023-03-08T02:08:25;96312.69;;;7.55;68.76
70921;BME280;58572;48.110;19.838;2023-03-08T02:10:52;96297.06;;;7.38;67.91
70921;BME280;58572;48.110;19.838;2023-03-08T02:13:20;96322.44;;;7.92;67.91
70921;BME280;58572;48.110;19.838;2023-03-08T02:15:48;96318.66;;;7.79;65.70
70921;BME280;58572;48.110;19.838;2023-03-08T02:18:15;96300.25;;;8.04;65.56
70921;BME280;58572;48.110;19.838;2023-03-08T02:20:42;96180.19;;;6.91;67.64
70921;BME280;58572;48.110;19.838;2023-03-08T02:23:12;96318.38;;;8.03;64.90
70921;BME280;58572;48.110;19.838;2023-03-08T02:25:40;96316.13;;;7.83;66.34
70921;BME280;58572;48.110;19.838;2023-03-08T02:28:07;96321.06;;;7.67;67.47
70921;BME280;58572;48.110;19.838;2023-03-08T02:30:36;96323.81;;;8.03;64.56
70921;BME280;58572;48.110;19.838;2023-03-08T02:33:03;96326.06;;;6.91;70.22
70921;BME280;58572;48.110;19.838;2023-03-08T02:35:30;96196.59;;;6.40;68.84
70921;BME280;58572;48.110;19.838;2023-03-08T02:37:57;96293.84;;;7.09;68.38
70921;BME280;58572;48.110;19.838;2023-03-08T02:40:26;96314.78;;;7.58;67.27
70921;BME280;58572;48.110;19.838;2023-03-08T02:42:53;96322.84;;;7.85;65.73
70921;BME280;58572;48.110;19.838;2023-03-08T02:45:21;96322.59;;;6.58;71.34
70921;BME280;58572;48.110;19.838;2023-03-08T02:47:48;96321.72;;;7.36;67.27
70921;BME280;58572;48.110;19.838;2023-03-08T02:50:16;96322.47;;;6.50;70.48
70921;BME280;58572;48.110;19.838;2023-03-08T02:52:43;96323.66;;;7.03;70.40
70921;BME280;58572;48.110;19.838;2023-03-08T02:55:10;96331.31;;;7.29;66.68
70921;BME280;58572;48.110;19.838;2023-03-08T02:57:38;96329.69;;;7.28;67.13
70921;BME280;58572;48.110;19.838;2023-03-08T03:00:06;96256.81;;;7.23;65.48
70921;BME280;58572;48.110;19.838;2023-03-08T03:02:35;96329.47;;;7.79;65.66
70921;BME280;58572;48.110;19.838;2023-03-08T03:05:03;96327.50;;;7.57;66.57
70921;BME280;58572;48.110;19.838;2023-03-08T03:07:30;96348.06;;;6.85;69.62
70921;BME280;58572;48.110;19.838;2023-03-08T03:10:00;96263.81;;;6.69;69.08
70921;BME280;58572;48.110;19.838;2023-03-08T03:12:28;96296.66;;;7.03;67.42
70921;BME280;58572;48.110;19.838;2023-03-08T03:14:57;96355.31;;;7.85;65.57
70921;BME280;58572;48.110;19.838;2023-03-08T03:17:24;96357.91;;;7.22;66.84
70921;BME280;58572;48.110;19.838;2023-03-08T03:19:50;96356.72;;;7.28;68.07
70921;BME280;58572;48.110;19.838;2023-03-08T03:22:17;96358.44;;;6.78;70.19
70921;BME280;58572;48.110;19.838;2023-03-08T03:24:45;96362.38;;;6.53;69.77
70921;BME280;58572;48.110;19.838;2023-03-08T03:27:12;96303.06;;;6.48;70.20
70921;BME280;58572;48.110;19.838;2023-03-08T03:29:39;96352.53;;;6.43;71.60
70921;BME280;58572;48.110;19.838;2023-03-08T03:32:07;96350.31;;;7.24;67.93
70921;BME280;58572;48.110;19.838;2023-03-08T03:34:35;96356.69;;;5.98;72.88
70921;BME280;58572;48.110;19.838;2023-03-08T03:37:02;96368.06;;;6.51;70.32
70921;BME280;58572;48.110;19.838;2023-03-08T03:39:29;96361.59;;;6.98;68.41
70921;BME280;58572;48.110;19.838;2023-03-08T03:41:59;96311.34;;;6.00;71.58
70921;BME280;58572;48.110;19.838;2023-03-08T03:44:28;96328.81;;;5.84;72.83
70921;BME280;58572;48.110;19.838;2023-03-08T03:46:55;96373.59;;;7.06;66.86
70921;BME280;58572;48.110;19.838;2023-03-08T03:49:24;96373.03;;;6.06;71.30
70921;BME280;58572;48.110;19.838;2023-03-08T03:51:51;96369.38;;;6.54;70.69
70921;BME280;58572;48.110;19.838;2023-03-08T03:54:18;96364.31;;;7.12;66.70
70921;BME280;58572;48.110;19.838;2023-03-08T03:56:45;96367.84;;;6.80;68.11
70921;BME280;58572;48.110;19.838;2023-03-08T03:59:12;96382.03;;;6.72;67.98
70921;BME280;58572;48.110;19.838;2023-03-08T04:01:39;96386.59;;;6.01;70.61
70921;BME280;58572;48.110;19.838;2023-03-08T04:04:06;96397.84;;;6.27;70.65
70921;BME280;58572;48.110;19.838;2023-03-08T04:06:35;96386.75;;;6.80;67.33
70921;BME280;58572;48.110;19.838;2023-03-08T04:09:05;96376.75;;;5.92;70.04
70921;BME280;58572;48.110;19.838;2023-03-08T04:11:34;96385.78;;;6.20;69.39
70921;BME280;58572;48.110;19.838;2023-03-08T04:14:02;96403.44;;;5.69;70.75
70921;BME280;58572;48.110;19.838;2023-03-08T04:16:30;96399.09;;;6.35;69.47
70921;BME280;58572;48.110;19.838;2023-03-08T04:18:58;96412.19;;;6.23;68.52
70921;BME280;58572;48.110;19.838;2023-03-08T04:21:27;96407.72;;;5.94;69.25
70921;BME280;58572;48.110;19.838;2023-03-08T04:23:55;96406.94;;;5.89;70.77
70921;BME280;58572;48.110;19.838;2023-03-08T04:26:23;96422.31;;;6.12;70.01
70921;BME280;58572;48.110;19.838;2023-03-08T04:28:50;96408.03;;;5.88;70.13
70921;BME280;58572;48.110;19.838;2023-03-08T04:31:20;96411.78;;;6.34;68.26
70921;BME280;58572;48.110;19.838;2023-03-08T04:33:49;96389.75;;;5.85;69.48
70921;BME280;58572;48.110;19.838;2023-03-08T04:36:17;96337.84;;;5.74;68.79
70921;BME280;58572;48.110;19.838;2023-03-08T04:38:45;96408.38;;;6.05;69.39
70921;BME280;58572;48.110;19.838;2023-03-08T04:41:14;96409.16;;;6.48;68.56
70921;BME280;58572;48.110;19.838;2023-03-08T04:43:44;96417.34;;;6.00;68.96
70921;BME280;58572;48.110;19.838;2023-03-08T04:46:12;96415.53;;;5.72;70.20
70921;BME280;58572;48.110;19.838;2023-03-08T04:48:40;96387.25;;;5.45;69.88
70921;BME280;58572;48.110;19.838;2023-03-08T04:51:07;96424.19;;;5.45;71.59
70921;BME280;58572;48.110;19.838;2023-03-08T04:53:35;96419.47;;;5.32;72.15
70921;BME280;58572;48.110;19.838;2023-03-08T04:56:05;96419.53;;;5.74;70.17
70921;BME280;58572;48.110;19.838;2023-03-08T04:58:34;96421.97;;;5.52;70.95
70921;BME280;58572;48.110;19.838;2023-03-08T05:01:08;96425.97;;;6.21;67.96
70921;BME280;58572;48.110;19.838;2023-03-08T05:03:35;96420.03;;;6.00;70.05
70921;BME280;58572;48.110;19.838;2023-03-08T05:06:03;96418.38;;;5.81;69.25
70921;BME280;58572;48.110;19.838;2023-03-08T05:08:30;96425.78;;;5.94;69.16
70921;BME280;58572;48.110;19.838;2023-03-08T05:10:59;96316.00;;;5.09;69.17
70921;BME280;58572;48.110;19.838;2023-03-08T05:13:27;96425.69;;;5.56;71.33
70921;BME280;58572;48.110;19.838;2023-03-08T05:15:56;96425.78;;;5.70;69.75
70921;BME280;58572;48.110;19.838;2023-03-08T05:18:24;96401.84;;;5.87;68.26
70921;BME280;58572;48.110;19.838;2023-03-08T05:20:54;96430.69;;;5.92;68.85
70921;BME280;58572;48.110;19.838;2023-03-08T05:23:22;96431.28;;;6.07;69.05
70921;BME280;58572;48.110;19.838;2023-03-08T05:25:53;96433.78;;;5.56;70.09
70921;BME280;58572;48.110;19.838;2023-03-08T05:28:20;96439.94;;;5.81;69.60
70921;BME280;58572;48.110;19.838;2023-03-08T05:30:48;96360.44;;;5.35;68.74
70921;BME280;58572;48.110;19.838;2023-03-08T05:33:17;96376.25;;;5.42;68.81
70921;BME280;58572;48.110;19.838;2023-03-08T05:35:51;96440.22;;;6.27;67.27
70921;BME280;58572;48.110;19.838;2023-03-08T05:38:19;96444.25;;;5.82;68.36
70921;BME280;58572;48.110;19.838;2023-03-08T05:40:46;96443.69;;;5.85;69.21
70921;BME280;58572;48.110;19.838;2023-03-08T05:43:14;96441.72;;;6.14;67.49
70921;BME280;58572;48.110;19.838;2023-03-08T05:45:41;96444.16;;;5.92;68.28
70921;BME280;58572;48.110;19.838;2023-03-08T05:48:09;96459.78;;;5.42;70.49
70921;BME280;58572;48.110;19.838;2023-03-08T05:50:37;96460.38;;;5.87;68.14
70921;BME280;58572;48.110;19.838;2023-03-08T05:53:04;96463.06;;;6.34;67.24
70921;BME280;58572;48.110;19.838;2023-03-08T05:55:31;96472.38;;;5.75;69.20
70921;BME280;58572;48.110;19.838;2023-03-08T05:57:58;96477.72;;;5.81;68.93
70921;BME280;58572;48.110;19.838;2023-03-08T06:00:26;96480.84;;;6.35;66.92
70921;BME280;58572;48.110;19.838;2023-03-08T06:02:53;96489.13;;;5.72;69.75
70921;BME280;58572;48.110;19.838;2023-03-08T06:05:20;96492.56;;;5.78;69.37
70921;BME280;58572;48.110;19.838;2023-03-08T06:07:48;96496.94;;;6.22;67.53
70921;BME280;58572;48.110;19.838;2023-03-08T06:10:16;96505.63;;;5.66;69.30
70921;BME280;58572;48.110;19.838;2023-03-08T06:12:43;96504.75;;;5.99;67.45
70921;BME280;58572;48.110;19.838;2023-03-08T06:15:10;96512.97;;;5.60;69.52
70921;BME280;58572;48.110;19.838;2023-03-08T06:17:37;96509.09;;;5.71;68.87
70921;BME280;58572;48.110;19.838;2023-03-08T06:20:05;96510.97;;;6.00;67.52
70921;BME280;58572;48.110;19.838;2023-03-08T06:22:33;96516.66;;;5.69;69.11
70921;BME280;58572;48.110;19.838;2023-03-08T06:25:02;96508.44;;;6.32;66.62
70921;BME280;58572;48.110;19.838;2023-03-08T06:27:29;96511.47;;;6.02;68.17
70921;BME280;58572;48.110;19.838;2023-03-08T06:29:56;96514.84;;;5.89;68.24
70921;BME280;58572;48.110;19.838;2023-03-08T06:32:24;96523.50;;;5.86;69.44
70921;BME280;58572;48.110;19.838;2023-03-08T06:34:51;96523.53;;;6.09;67.35
70921;BME280;58572;48.110;19.838;2023-03-08T06:37:18;96527.59;;;6.07;67.30
70921;BME280;58572;48.110;19.838;2023-03-08T06:39:46;96532.78;;;6.27;66.66
70921;BME280;58572;48.110;19.838;2023-03-08T06:42:15;96530.09;;;6.22;66.66
70921;BME280;58572;48.110;19.838;2023-03-08T06:44:42;96533.69;;;6.42;66.16
70921;BME280;58572;48.110;19.838;2023-03-08T06:47:09;96538.22;;;5.69;68.69
70921;BME280;58572;48.110;19.838;2023-03-08T06:49:36;96544.69;;;5.97;68.43
70921;BME280;58572;48.110;19.838;2023-03-08T06:52:04;96544.13;;;6.00;67.79
70921;BME280;58572;48.110;19.838;2023-03-08T06:54:31;96560.84;;;5.73;68.55
70921;BME280;58572;48.110;19.838;2023-03-08T06:56:58;96565.50;;;5.34;70.33
70921;BME280;58572;48.110;19.838;2023-03-08T06:59:27;96565.69;;;5.42;70.16
70921;BME280;58572;48.110;19.838;2023-03-08T07:01:54;96570.25;;;6.05;68.08
70921;BME280;58572;48.110;19.838;2023-03-08T07:04:22;96573.22;;;6.03;66.95
70921;BME280;58572;48.110;19.838;2023-03-08T07:06:49;96574.38;;;6.21;66.24
70921;BME280;58572;48.110;19.838;2023-03-08T07:09:16;96583.72;;;5.47;69.59
70921;BME280;58572;48.110;19.838;2023-03-08T07:11:43;96583.91;;;6.14;67.46
70921;BME280;58572;48.110;19.838;2023-03-08T07:14:10;96594.63;;;5.95;67.80
70921;BME280;58572;48.110;19.838;2023-03-08T07:16:38;96600.41;;;5.49;68.94
70921;BME280;58572;48.110;19.838;2023-03-08T07:19:05;96596.13;;;6.06;67.04
70921;BME280;58572;48.110;19.838;2023-03-08T07:21:33;96597.06;;;6.20;66.71
70921;BME280;58572;48.110;19.838;2023-03-08T07:24:01;96615.53;;;6.08;67.16
70921;BME280;58572;48.110;19.838;2023-03-08T07:26:29;96620.16;;;5.73;68.18
70921;BME280;58572;48.110;19.838;2023-03-08T07:28:56;96614.72;;;6.36;66.20
70921;BME280;58572;48.110;19.838;2023-03-08T07:31:23;96607.19;;;6.33;66.37
70921;BME280;58572;48.110;19.838;2023-03-08T07:33:52;96612.78;;;6.13;65.97
70921;BME280;58572;48.110;19.838;2023-03-08T07:36:19;96611.44;;;6.39;65.25
70921;BME280;58572;48.110;19.838;2023-03-08T07:38:47;96610.72;;;6.77;63.26
70921;BME280;58572;48.110;19.838;2023-03-08T07:41:14;96626.56;;;6.83;64.12
70921;BME280;58572;48.110;19.838;2023-03-08T07:43:41;96621.50;;;6.77;64.07
70921;BME280;58572;48.110;19.838;2023-03-08T07:46:08;96623.38;;;6.33;65.18
70921;BME280;58572;48.110;19.838;2023-03-08T07:48:35;96535.56;;;5.93;64.59
70921;BME280;58572;48.110;19.838;2023-03-08T07:51:06;96542.13;;;6.11;64.41
70921;BME280;58572;48.110;19.838;2023-03-08T07:53:34;96629.72;;;6.90;63.92
70921;BME280;58572;48.110;19.838;2023-03-08T07:56:02;96627.88;;;6.43;64.49
70921;BME280;58572;48.110;19.838;2023-03-08T07:58:29;96632.13;;;6.49;64.59
70921;BME280;58572;48.110;19.838;2023-03-08T08:00:56;96634.25;;;6.95;63.87
70921;BME280;58572;48.110;19.838;2023-03-08T08:03:23;96603.06;;;7.40;61.59
70921;BME280;58572;48.110;19.838;2023-03-08T08:05:51;96633.72;;;6.93;62.84
70921;BME280;58572;48.110;19.838;2023-03-08T08:08:19;96630.31;;;7.06;62.55
70921;BME280;58572;48.110;19.838;2023-03-08T08:10:47;96641.44;;;6.81;64.17
70921;BME280;58572;48.110;19.838;2023-03-08T08:13:14;96651.03;;;6.92;62.45
70921;BME280;58572;48.110;19.838;2023-03-08T08:15:40;96646.66;;;7.15;61.48
70921;BME280;58572;48.110;19.838;2023-03-08T08:18:08;96649.66;;;7.69;58.81
70921;BME280;58572;48.110;19.838;2023-03-08T08:20:35;96654.06;;;7.47;60.41
70921;BME280;58572;48.110;19.838;2023-03-08T08:23:04;96658.34;;;8.31;56.33
70921;BME280;58572;48.110;19.838;2023-03-08T08:25:33;96643.34;;;8.07;56.11
70921;BME280;58572;48.110;19.838;2023-03-08T08:28:00;96647.47;;;8.64;55.42
70921;BME280;58572;48.110;19.838;2023-03-08T08:30:27;96644.63;;;9.10;55.54
70921;BME280;58572;48.110;19.838;2023-03-08T08:32:54;96645.19;;;8.57;55.65
70921;BME280;58572;48.110;19.838;2023-03-08T08:35:21;96644.88;;;7.80;56.36
70921;BME280;58572;48.110;19.838;2023-03-08T08:37:48;96648.69;;;8.25;55.23
70921;BME280;58572;48.110;19.838;2023-03-08T08:40:15;96642.09;;;9.64;50.73
70921;BME280;58572;48.110;19.838;2023-03-08T08:42:44;96633.44;;;10.06;52.77
70921;BME280;58572;48.110;19.838;2023-03-08T08:45:11;96631.34;;;11.22;46.52
70921;BME280;58572;48.110;19.838;2023-03-08T08:47:38;96635.72;;;11.92;49.81
70921;BME280;58572;48.110;19.838;2023-03-08T08:50:05;96622.53;;;11.16;52.49
70921;BME280;58572;48.110;19.838;2023-03-08T08:52:32;96618.13;;;10.72;51.22
70921;BME280;58572;48.110;19.838;2023-03-08T08:54:59;96636.72;;;9.95;51.08
70921;BME280;58572;48.110;19.838;2023-03-08T08:57:26;96585.19;;;9.14;53.83
70921;BME280;58572;48.110;19.838;2023-03-08T08:59:54;96631.94;;;10.45;50.54
70921;BME280;58572;48.110;19.838;2023-03-08T09:02:22;96622.47;;;10.82;49.72
70921;BME280;58572;48.110;19.838;2023-03-08T09:04:49;96615.72;;;11.54;49.07
70921;BME280;58572;48.110;19.838;2023-03-08T09:07:16;96627.66;;;9.99;46.28
70921;BME280;58572;48.110;19.838;2023-03-08T09:09:43;96607.69;;;11.66;48.83
70921;BME280;58572;48.110;19.838;2023-03-08T09:12:10;96616.59;;;12.73;46.64
70921;BME280;58572;48.110;19.838;2023-03-08T09:14:37;96617.66;;;13.19;44.55
70921;BME280;58572;48.110;19.838;2023-03-08T09:17:06;96623.59;;;12.45;48.22
70921;BME280;58572;48.110;19.838;2023-03-08T09:19:33;96628.72;;;13.23;46.60
70921;BME280;58572;48.110;19.838;2023-03-08T09:22:01;96633.13;;;11.44;47.69
70921;BME280;58572;48.110;19.838;2023-03-08T09:24:28;96616.75;;;12.22;47.20
70921;BME280;58572;48.110;19.838;2023-03-08T09:26:55;96633.66;;;11.80;47.93
70921;BME280;58572;48.110;19.838;2023-03-08T09:29:22;96627.72;;;12.04;45.90
70921;BME280;58572;48.110;19.838;2023-03-08T09:31:49;96626.25;;;12.15;46.35
70921;BME280;58572;48.110;19.838;2023-03-08T09:34:18;96628.41;;;13.87;44.13
70921;BME280;58572;48.110;19.838;2023-03-08T09:36:45;96629.88;;;13.84;44.05
70921;BME280;58572;48.110;19.838;2023-03-08T09:39:12;96636.50;;;13.95;42.33
70921;BME280;58572;48.110;19.838;2023-03-08T09:41:46;96624.00;;;14.39;40.21
70921;BME280;58572;48.110;19.838;2023-03-08T09:44:35;96645.34;;;11.55;48.63
70921;BME280;58572;48.110;19.838;2023-03-08T09:47:10;96651.25;;;12.73;40.39
70921;BME280;58572;48.110;19.838;2023-03-08T09:49:42;96636.84;;;12.64;46.27
70921;BME280;58572;48.110;19.838;2023-03-08T09:52:15;96531.38;;;13.27;41.64
70921;BME280;58572;48.110;19.838;2023-03-08T09:54:44;96607.69;;;14.31;42.41
70921;BME280;58572;48.110;19.838;2023-03-08T09:57:21;96609.84;;;15.07;40.97
70921;BME280;58572;48.110;19.838;2023-03-08T09:59:53;96613.22;;;14.55;41.56
70921;BME280;58572;48.110;19.838;2023-03-08T10:02:29;96627.47;;;13.62;41.30
70921;BME280;58572;48.110;19.838;2023-03-08T10:05:05;96619.44;;;14.89;40.92
70921;BME280;58572;48.110;19.838;2023-03-08T10:07:44;96605.88;;;16.69;34.44
70921;BME280;58572;48.110;19.838;2023-03-08T10:10:26;96629.78;;;13.30;42.19
70921;BME280;58572;48.110;19.838;2023-03-08T10:13:04;96608.81;;;14.30;40.50
70921;BME280;58572;48.110;19.838;2023-03-08T10:15:39;96582.13;;;15.73;39.12
70921;BME280;58572;48.110;19.838;2023-03-08T10:18:15;96598.03;;;15.95;39.66
70921;BME280;58572;48.110;19.838;2023-03-08T10:20:45;96602.63;;;16.35;36.21
70921;BME280;58572;48.110;19.838;2023-03-08T10:23:16;96591.50;;;15.60;37.31
70921;BME280;58572;48.110;19.838;2023-03-08T10:25:44;96597.16;;;15.27;38.22
70921;BME280;58572;48.110;19.838;2023-03-08T10:28:16;96607.56;;;13.61;42.99
70921;BME280;58572;48.110;19.838;2023-03-08T10:30:49;96551.66;;;13.80;43.17
70921;BME280;58572;48.110;19.838;2023-03-08T10:33:19;96599.59;;;15.04;38.86
70921;BME280;58572;48.110;19.838;2023-03-08T10:35:56;96600.75;;;14.79;37.64
70921;BME280;58572;48.110;19.838;2023-03-08T10:38:26;96595.00;;;14.47;39.75
70921;BME280;58572;48.110;19.838;2023-03-08T10:41:04;96607.28;;;14.08;40.72
70921;BME280;58572;48.110;19.838;2023-03-08T10:43:35;96603.25;;;14.96;39.29
70921;BME280;58572;48.110;19.838;2023-03-08T10:46:10;96568.31;;;11.72;40.30
70921;BME280;58572;48.110;19.838;2023-03-08T10:48:38;96605.28;;;12.92;38.54
70921;BME280;58572;48.110;19.838;2023-03-08T10:51:16;96598.34;;;14.32;38.48
70921;BME280;58572;48.110;19.838;2023-03-08T10:53:52;96614.44;;;14.00;38.96
70921;BME280;58572;48.110;19.838;2023-03-08T10:56:23;96554.75;;;13.90;38.14
70921;BME280;58572;48.110;19.838;2023-03-08T10:58:54;96616.41;;;14.45;35.31
70921;BME280;58572;48.110;19.838;2023-03-08T11:01:25;96617.66;;;13.40;36.56
70921;BME280;58572;48.110;19.838;2023-03-08T11:04:12;96603.00;;;14.64;38.47
70921;BME280;58572;48.110;19.838;2023-03-08T11:06:42;96620.78;;;13.30;39.55
70921;BME280;58572;48.110;19.838;2023-03-08T11:09:22;96608.56;;;14.11;36.68
70921;BME280;58572;48.110;19.838;2023-03-08T11:11:50;96422.56;;;13.25;36.82
70921;BME280;58572;48.110;19.838;2023-03-08T11:14:17;96601.94;;;11.76;39.84
70921;BME280;58572;48.110;19.838;2023-03-08T11:16:49;96576.19;;;14.00;40.52
70921;BME280;58572;48.110;19.838;2023-03-08T11:19:29;96588.97;;;13.34;37.27
70921;BME280;58572;48.110;19.838;2023-03-08T11:22:07;96586.44;;;13.50;40.35
70921;BME280;58572;48.110;19.838;2023-03-08T11:24:51;96573.66;;;13.95;39.72
70921;BME280;58572;48.110;19.838;2023-03-08T11:27:34;96573.00;;;13.65;35.90
70921;BME280;58572;48.110;19.838;2023-03-08T11:30:16;96561.44;;;14.38;38.10
70921;BME280;58572;48.110;19.838;2023-03-08T11:33:00;96554.63;;;15.17;37.49
70921;BME280;58572;48.110;19.838;2023-03-08T11:35:34;96564.28;;;14.29;36.26
70921;BME280;58572;48.110;19.838;2023-03-08T11:38:10;96567.56;;;13.15;36.46
70921;BME280;58572;48.110;19.838;2023-03-08T11:40:48;96555.13;;;14.83;38.84
70921;BME280;58572;48.110;19.838;2023-03-08T11:43:32;96547.78;;;15.51;35.48
70921;BME280;58572;48.110;19.838;2023-03-08T11:46:08;96555.94;;;14.14;39.21
70921;BME280;58572;48.110;19.838;2023-03-08T11:48:54;96563.94;;;14.19;40.08
70921;BME280;58572;48.110;19.838;2023-03-08T11:51:28;96553.53;;;13.67;38.95
70921;BME280;58572;48.110;19.838;2023-03-08T11:54:07;96551.66;;;13.80;38.39
70921;BME280;58572;48.110;19.838;2023-03-08T11:56:41;96531.28;;;14.47;37.04
70921;BME280;58572;48.110;19.838;2023-03-08T11:59:16;96550.47;;;14.14;37.63
70921;BME280;58572;48.110;19.838;2023-03-08T12:01:47;96553.84;;;13.53;40.39
70921;BME280;58572;48.110;19.838;2023-03-08T12:04:18;96543.63;;;14.07;40.40
70921;BME280;58572;48.110;19.838;2023-03-08T12:06:46;96547.56;;;13.53;38.00
70921;BME280;58572;48.110;19.838;2023-03-08T12:09:20;96546.31;;;12.79;38.56
70921;BME280;58572;48.110;19.838;2023-03-08T12:11:52;96536.06;;;12.38;39.79
70921;BME280;58572;48.110;19.838;2023-03-08T12:14:26;96538.78;;;13.26;40.73
70921;BME280;58572;48.110;19.838;2023-03-08T12:17:01;96533.44;;;13.30;41.30
70921;BME280;58572;48.110;19.838;2023-03-08T12:19:35;96535.63;;;12.95;38.63
70921;BME280;58572;48.110;19.838;2023-03-08T12:22:17;96530.75;;;12.79;40.89
70921;BME280;58572;48.110;19.838;2023-03-08T12:24:55;96530.28;;;12.98;39.14
70921;BME280;58572;48.110;19.838;2023-03-08T12:27:27;96520.25;;;13.11;39.42
70921;BME280;58572;48.110;19.838;2023-03-08T12:30:00;96528.59;;;13.35;40.11
70921;BME280;58572;48.110;19.838;2023-03-08T12:32:30;96520.47;;;12.18;39.55
70921;BME280;58572;48.110;19.838;2023-03-08T12:35:01;96513.16;;;12.68;36.29
70921;BME280;58572;48.110;19.838;2023-03-08T12:37:29;96505.19;;;13.67;39.64
70921;BME280;58572;48.110;19.838;2023-03-08T12:40:01;96496.28;;;12.96;36.44
70921;BME280;58572;48.110;19.838;2023-03-08T12:42:35;96504.88;;;13.81;37.94
70921;BME280;58572;48.110;19.838;2023-03-08T12:45:09;96514.47;;;13.33;34.95
70921;BME280;58572;48.110;19.838;2023-03-08T12:48:17;96517.91;;;12.80;36.31
70921;BME280;58572;48.110;19.838;2023-03-08T12:50:58;96510.13;;;13.11;33.95
70921;BME280;58572;48.110;19.838;2023-03-08T12:53:34;96513.19;;;13.10;39.35
70921;BME280;58572;48.110;19.838;2023-03-08T12:56:12;96517.72;;;13.48;38.86
70921;BME280;58572;48.110;19.838;2023-03-08T12:58:46;96509.63;;;13.72;39.23
70921;BME280;58572;48.110;19.838;2023-03-08T13:01:26;96509.00;;;13.87;36.41
70921;BME280;58572;48.110;19.838;2023-03-08T13:03:54;96488.41;;;14.14;39.38
70921;BME280;58572;48.110;19.838;2023-03-08T13:09:26;96482.38;;;14.21;37.70
70921;BME280;58572;48.110;19.838;2023-03-08T13:12:10;96457.25;;;13.58;39.06
70921;BME280;58572;48.110;19.838;2023-03-08T13:14:41;96507.81;;;11.49;42.08